sensor_id;sensor_type;location;lat;lon;timestamp;P1;durP1;ratioP1;P2;durP2;ratioP2
8737;SDS011;4405;49.272;8.590;2022-09-21T00:02:16;4.13;;;3.60;;
8737;SDS011;4405;49.272;8.590;2022-09-21T00:04:43;5.83;;;5.30;;
8737;SDS011;4405;49.272;8.590;2022-09-21T00:07:09;5.63;;;4.30;;
8737;SDS011;4405;49.272;8.590;2022-09-21T00:09:35;6.53;;;3.80;;
8737;SDS011;4405;49.272;8.590;2022-09-21T00:12:02;7.10;;;4.10;;
8737;SDS011;4405;49.272;8.590;2022-09-21T00:14:28;8.03;;;6.30;;
8737;SDS011;4405;49.272;8.590;2022-09-21T00:16:57;3.83;;;3.57;;
8737;SDS011;4405;49.272;8.590;2022-09-21T00:19:23;3.90;;;3.23;;
8737;SDS011;4405;49.272;8.590;2022-09-21T00:21:52;4.43;;;3.33;;
8737;SDS011;4405;49.272;8.590;2022-09-21T00:24:19;6.47;;;3.73;;
8737;SDS011;4405;49.272;8.590;2022-09-21T00:26:45;4.30;;;3.03;;
8737;SDS011;4405;49.272;8.590;2022-09-21T00:29:12;4.27;;;3.40;;
8737;SDS011;4405;49.272;8.590;2022-09-21T00:31:38;6.90;;;3.97;;
8737;SDS011;4405;49.272;8.590;2022-09-21T00:34:06;6.43;;;3.13;;
8737;SDS011;4405;49.272;8.590;2022-09-21T00:36:32;3.77;;;3.47;;
8737;SDS011;4405;49.272;8.590;2022-09-21T00:38:59;5.23;;;3.43;;
8737;SDS011;4405;49.272;8.590;2022-09-21T00:41:27;3.70;;;3.40;;
8737;SDS011;4405;49.272;8.590;2022-09-21T00:46:38;4.57;;;4.20;;
8737;SDS011;4405;49.272;8.590;2022-09-21T00:49:06;4.97;;;3.30;;
8737;SDS011;4405;49.272;8.590;2022-09-21T00:51:33;5.00;;;3.43;;
8737;SDS011;4405;49.272;8.590;2022-09-21T00:54:01;4.70;;;3.50;;
8737;SDS011;4405;49.272;8.590;2022-09-21T00:56:28;7.53;;;3.13;;
8737;SDS011;4405;49.272;8.590;2022-09-21T00:58:55;3.87;;;3.10;;
8737;SDS011;4405;49.272;8.590;2022-09-21T01:01:22;3.27;;;3.03;;
8737;SDS011;4405;49.272;8.590;2022-09-21T01:03:49;6.93;;;3.30;;
8737;SDS011;4405;49.272;8.590;2022-09-21T01:06:18;3.73;;;2.77;;
8737;SDS011;4405;49.272;8.590;2022-09-21T01:08:45;4.00;;;2.83;;
8737;SDS011;4405;49.272;8.590;2022-09-21T01:11:19;5.77;;;3.37;;
8737;SDS011;4405;49.272;8.590;2022-09-21T01:13:52;5.57;;;3.03;;
8737;SDS011;4405;49.272;8.590;2022-09-21T01:16:24;2.97;;;2.73;;
8737;SDS011;4405;49.272;8.590;2022-09-21T01:18:53;3.20;;;3.00;;
8737;SDS011;4405;49.272;8.590;2022-09-21T01:21:25;4.73;;;3.27;;
8737;SDS011;4405;49.272;8.590;2022-09-21T01:26:38;6.40;;;3.87;;
8737;SDS011;4405;49.272;8.590;2022-09-21T01:29:12;3.80;;;3.50;;
8737;SDS011;4405;49.272;8.590;2022-09-21T01:31:42;3.70;;;3.33;;
8737;SDS011;4405;49.272;8.590;2022-09-21T01:34:11;3.63;;;3.27;;
8737;SDS011;4405;49.272;8.590;2022-09-21T01:36:40;5.50;;;3.13;;
8737;SDS011;4405;49.272;8.590;2022-09-21T01:39:08;3.63;;;3.33;;
8737;SDS011;4405;49.272;8.590;2022-09-21T01:41:36;3.67;;;3.30;;
8737;SDS011;4405;49.272;8.590;2022-09-21T01:44:05;4.93;;;3.40;;
8737;SDS011;4405;49.272;8.590;2022-09-21T01:46:34;3.93;;;3.63;;
8737;SDS011;4405;49.272;8.590;2022-09-21T01:49:03;3.93;;;3.37;;
8737;SDS011;4405;49.272;8.590;2022-09-21T01:51:30;3.37;;;3.13;;
8737;SDS011;4405;49.272;8.590;2022-09-21T01:53:58;3.20;;;2.90;;
8737;SDS011;4405;49.272;8.590;2022-09-21T01:56:29;3.80;;;2.87;;
8737;SDS011;4405;49.272;8.590;2022-09-21T01:59:00;3.73;;;3.37;;
8737;SDS011;4405;49.272;8.590;2022-09-21T02:01:28;4.30;;;3.10;;
8737;SDS011;4405;49.272;8.590;2022-09-21T02:03:59;3.77;;;2.90;;
8737;SDS011;4405;49.272;8.590;2022-09-21T02:06:27;4.83;;;3.20;;
8737;SDS011;4405;49.272;8.590;2022-09-21T02:08:54;4.70;;;3.03;;
8737;SDS011;4405;49.272;8.590;2022-09-21T02:11:21;6.47;;;3.17;;
8737;SDS011;4405;49.272;8.590;2022-09-21T02:13:47;3.30;;;2.90;;
8737;SDS011;4405;49.272;8.590;2022-09-21T02:16:23;3.67;;;2.80;;
8737;SDS011;4405;49.272;8.590;2022-09-21T02:18:57;3.57;;;2.93;;
8737;SDS011;4405;49.272;8.590;2022-09-21T02:21:29;7.03;;;3.27;;
8737;SDS011;4405;49.272;8.590;2022-09-21T02:23:59;3.53;;;3.10;;
8737;SDS011;4405;49.272;8.590;2022-09-21T02:26:32;3.30;;;3.00;;
8737;SDS011;4405;49.272;8.590;2022-09-21T02:29:00;6.33;;;3.33;;
8737;SDS011;4405;49.272;8.590;2022-09-21T02:31:34;5.37;;;3.10;;
8737;SDS011;4405;49.272;8.590;2022-09-21T02:34:03;5.50;;;2.83;;
8737;SDS011;4405;49.272;8.590;2022-09-21T02:36:36;3.53;;;3.20;;
8737;SDS011;4405;49.272;8.590;2022-09-21T02:39:08;3.00;;;2.80;;
8737;SDS011;4405;49.272;8.590;2022-09-21T02:41:36;3.40;;;2.63;;
8737;SDS011;4405;49.272;8.590;2022-09-21T02:44:05;6.47;;;2.70;;
8737;SDS011;4405;49.272;8.590;2022-09-21T02:46:35;3.20;;;3.00;;
8737;SDS011;4405;49.272;8.590;2022-09-21T02:49:04;2.90;;;2.73;;
8737;SDS011;4405;49.272;8.590;2022-09-21T02:51:34;3.30;;;3.00;;
8737;SDS011;4405;49.272;8.590;2022-09-21T02:54:03;5.67;;;3.00;;
8737;SDS011;4405;49.272;8.590;2022-09-21T02:56:31;4.20;;;3.20;;
8737;SDS011;4405;49.272;8.590;2022-09-21T02:58:59;3.87;;;3.07;;
8737;SDS011;4405;49.272;8.590;2022-09-21T03:01:26;3.57;;;3.30;;
8737;SDS011;4405;49.272;8.590;2022-09-21T03:03:53;4.00;;;3.20;;
8737;SDS011;4405;49.272;8.590;2022-09-21T03:06:19;4.37;;;3.50;;
8737;SDS011;4405;49.272;8.590;2022-09-21T03:08:48;3.67;;;3.33;;
8737;SDS011;4405;49.272;8.590;2022-09-21T03:11:16;4.07;;;3.50;;
8737;SDS011;4405;49.272;8.590;2022-09-21T03:13:45;3.63;;;3.33;;
8737;SDS011;4405;49.272;8.590;2022-09-21T03:16:12;3.43;;;3.20;;
8737;SDS011;4405;49.272;8.590;2022-09-21T03:18:38;3.53;;;3.20;;
8737;SDS011;4405;49.272;8.590;2022-09-21T03:21:08;3.80;;;3.50;;
8737;SDS011;4405;49.272;8.590;2022-09-21T03:23:35;4.73;;;3.67;;
8737;SDS011;4405;49.272;8.590;2022-09-21T03:26:01;4.27;;;3.73;;
8737;SDS011;4405;49.272;8.590;2022-09-21T03:28:29;5.10;;;3.77;;
8737;SDS011;4405;49.272;8.590;2022-09-21T03:30:55;4.70;;;3.80;;
8737;SDS011;4405;49.272;8.590;2022-09-21T03:33:21;4.53;;;3.80;;
8737;SDS011;4405;49.272;8.590;2022-09-21T03:35:49;7.13;;;3.73;;
8737;SDS011;4405;49.272;8.590;2022-09-21T03:38:15;4.67;;;4.37;;
8737;SDS011;4405;49.272;8.590;2022-09-21T03:40:43;3.70;;;3.40;;
8737;SDS011;4405;49.272;8.590;2022-09-21T03:43:09;5.87;;;3.73;;
8737;SDS011;4405;49.272;8.590;2022-09-21T03:45:37;8.73;;;5.87;;
8737;SDS011;4405;49.272;8.590;2022-09-21T03:48:05;7.20;;;4.90;;
8737;SDS011;4405;49.272;8.590;2022-09-21T03:50:31;9.47;;;4.57;;
8737;SDS011;4405;49.272;8.590;2022-09-21T03:52:58;9.10;;;3.77;;
8737;SDS011;4405;49.272;8.590;2022-09-21T03:55:24;5.40;;;4.37;;
8737;SDS011;4405;49.272;8.590;2022-09-21T03:57:51;4.83;;;4.43;;
8737;SDS011;4405;49.272;8.590;2022-09-21T04:00:18;4.63;;;4.00;;
8737;SDS011;4405;49.272;8.590;2022-09-21T04:02:45;7.03;;;4.00;;
8737;SDS011;4405;49.272;8.590;2022-09-21T04:05:12;5.17;;;3.90;;
8737;SDS011;4405;49.272;8.590;2022-09-21T04:07:40;3.93;;;3.63;;
8737;SDS011;4405;49.272;8.590;2022-09-21T04:10:07;4.40;;;4.00;;
8737;SDS011;4405;49.272;8.590;2022-09-21T04:12:37;4.00;;;3.60;;
8737;SDS011;4405;49.272;8.590;2022-09-21T04:15:04;4.33;;;3.93;;
8737;SDS011;4405;49.272;8.590;2022-09-21T04:17:31;5.50;;;3.10;;
8737;SDS011;4405;49.272;8.590;2022-09-21T04:19:59;4.27;;;3.60;;
8737;SDS011;4405;49.272;8.590;2022-09-21T04:22:25;5.10;;;3.50;;
8737;SDS011;4405;49.272;8.590;2022-09-21T04:24:52;3.77;;;3.40;;
8737;SDS011;4405;49.272;8.590;2022-09-21T04:27:18;5.40;;;4.40;;
8737;SDS011;4405;49.272;8.590;2022-09-21T04:29:44;8.00;;;3.80;;
8737;SDS011;4405;49.272;8.590;2022-09-21T04:32:11;6.07;;;4.23;;
8737;SDS011;4405;49.272;8.590;2022-09-21T04:34:37;5.73;;;3.73;;
8737;SDS011;4405;49.272;8.590;2022-09-21T04:37:05;7.17;;;4.27;;
8737;SDS011;4405;49.272;8.590;2022-09-21T04:39:32;4.20;;;3.83;;
8737;SDS011;4405;49.272;8.590;2022-09-21T04:41:59;3.90;;;3.60;;
8737;SDS011;4405;49.272;8.590;2022-09-21T04:44:25;5.60;;;4.10;;
8737;SDS011;4405;49.272;8.590;2022-09-21T04:46:51;5.53;;;4.07;;
8737;SDS011;4405;49.272;8.590;2022-09-21T04:49:18;6.23;;;4.47;;
8737;SDS011;4405;49.272;8.590;2022-09-21T04:51:44;4.43;;;4.03;;
8737;SDS011;4405;49.272;8.590;2022-09-21T04:54:12;4.03;;;3.70;;
8737;SDS011;4405;49.272;8.590;2022-09-21T04:56:38;3.93;;;3.50;;
8737;SDS011;4405;49.272;8.590;2022-09-21T04:59:05;6.73;;;3.60;;
8737;SDS011;4405;49.272;8.590;2022-09-21T05:01:31;4.07;;;3.53;;
8737;SDS011;4405;49.272;8.590;2022-09-21T05:03:58;4.63;;;3.67;;
8737;SDS011;4405;49.272;8.590;2022-09-21T05:06:26;4.07;;;3.40;;
8737;SDS011;4405;49.272;8.590;2022-09-21T05:08:52;3.33;;;3.13;;
8737;SDS011;4405;49.272;8.590;2022-09-21T05:11:38;3.83;;;3.40;;
8737;SDS011;4405;49.272;8.590;2022-09-21T05:14:04;4.43;;;3.27;;
8737;SDS011;4405;49.272;8.590;2022-09-21T05:16:30;5.97;;;3.67;;
8737;SDS011;4405;49.272;8.590;2022-09-21T05:18:57;3.70;;;3.40;;
8737;SDS011;4405;49.272;8.590;2022-09-21T05:21:23;6.50;;;3.80;;
8737;SDS011;4405;49.272;8.590;2022-09-21T05:23:49;4.17;;;3.70;;
8737;SDS011;4405;49.272;8.590;2022-09-21T05:26:16;5.87;;;3.07;;
8737;SDS011;4405;49.272;8.590;2022-09-21T05:28:44;3.57;;;3.30;;
8737;SDS011;4405;49.272;8.590;2022-09-21T05:31:12;4.57;;;3.03;;
8737;SDS011;4405;49.272;8.590;2022-09-21T05:33:40;4.73;;;3.30;;
8737;SDS011;4405;49.272;8.590;2022-09-21T05:36:09;5.83;;;3.70;;
8737;SDS011;4405;49.272;8.590;2022-09-21T05:38:38;4.60;;;3.87;;
8737;SDS011;4405;49.272;8.590;2022-09-21T05:41:05;3.57;;;3.37;;
8737;SDS011;4405;49.272;8.590;2022-09-21T05:43:32;4.63;;;3.83;;
8737;SDS011;4405;49.272;8.590;2022-09-21T05:46:02;3.33;;;3.07;;
8737;SDS011;4405;49.272;8.590;2022-09-21T05:48:31;4.73;;;3.27;;
8737;SDS011;4405;49.272;8.590;2022-09-21T05:51:02;5.07;;;3.63;;
8737;SDS011;4405;49.272;8.590;2022-09-21T05:53:37;3.47;;;3.17;;
8737;SDS011;4405;49.272;8.590;2022-09-21T05:56:07;4.90;;;3.13;;
8737;SDS011;4405;49.272;8.590;2022-09-21T05:58:39;5.80;;;3.10;;
8737;SDS011;4405;49.272;8.590;2022-09-21T06:01:14;5.47;;;3.50;;
8737;SDS011;4405;49.272;8.590;2022-09-21T06:03:42;4.43;;;3.70;;
8737;SDS011;4405;49.272;8.590;2022-09-21T06:06:09;4.53;;;3.57;;
8737;SDS011;4405;49.272;8.590;2022-09-21T06:08:35;6.43;;;3.23;;
8737;SDS011;4405;49.272;8.590;2022-09-21T06:11:01;3.50;;;3.20;;
8737;SDS011;4405;49.272;8.590;2022-09-21T06:13:28;3.50;;;3.20;;
8737;SDS011;4405;49.272;8.590;2022-09-21T06:15:54;3.50;;;3.20;;
8737;SDS011;4405;49.272;8.590;2022-09-21T06:18:22;3.37;;;3.07;;
8737;SDS011;4405;49.272;8.590;2022-09-21T06:20:48;3.73;;;3.40;;
8737;SDS011;4405;49.272;8.590;2022-09-21T06:23:15;4.10;;;3.50;;
8737;SDS011;4405;49.272;8.590;2022-09-21T06:25:41;4.73;;;3.63;;
8737;SDS011;4405;49.272;8.590;2022-09-21T06:28:08;5.27;;;3.43;;
8737;SDS011;4405;49.272;8.590;2022-09-21T06:30:35;7.03;;;3.73;;
8737;SDS011;4405;49.272;8.590;2022-09-21T06:33:03;3.43;;;3.23;;
8737;SDS011;4405;49.272;8.590;2022-09-21T06:35:32;4.90;;;3.57;;
8737;SDS011;4405;49.272;8.590;2022-09-21T06:37:59;4.70;;;3.70;;
8737;SDS011;4405;49.272;8.590;2022-09-21T06:40:25;4.57;;;3.20;;
8737;SDS011;4405;49.272;8.590;2022-09-21T06:42:54;3.60;;;2.90;;
8737;SDS011;4405;49.272;8.590;2022-09-21T06:45:20;4.07;;;3.10;;
8737;SDS011;4405;49.272;8.590;2022-09-21T06:47:47;3.77;;;3.23;;
8737;SDS011;4405;49.272;8.590;2022-09-21T06:50:13;6.17;;;2.90;;
8737;SDS011;4405;49.272;8.590;2022-09-21T06:52:41;2.93;;;2.60;;
8737;SDS011;4405;49.272;8.590;2022-09-21T06:55:08;3.27;;;2.97;;
8737;SDS011;4405;49.272;8.590;2022-09-21T06:57:34;3.40;;;2.80;;
8737;SDS011;4405;49.272;8.590;2022-09-21T07:00:02;3.43;;;2.90;;
8737;SDS011;4405;49.272;8.590;2022-09-21T07:02:29;4.90;;;3.27;;
8737;SDS011;4405;49.272;8.590;2022-09-21T07:04:55;3.30;;;2.57;;
8737;SDS011;4405;49.272;8.590;2022-09-21T07:07:22;5.80;;;2.97;;
8737;SDS011;4405;49.272;8.590;2022-09-21T07:09:50;5.63;;;3.00;;
8737;SDS011;4405;49.272;8.590;2022-09-21T07:12:16;5.57;;;2.80;;
8737;SDS011;4405;49.272;8.590;2022-09-21T07:14:43;2.80;;;2.60;;
8737;SDS011;4405;49.272;8.590;2022-09-21T07:17:10;4.50;;;2.80;;
8737;SDS011;4405;49.272;8.590;2022-09-21T07:19:37;3.23;;;2.77;;
8737;SDS011;4405;49.272;8.590;2022-09-21T07:22:03;3.03;;;2.60;;
8737;SDS011;4405;49.272;8.590;2022-09-21T07:24:29;3.43;;;2.83;;
8737;SDS011;4405;49.272;8.590;2022-09-21T07:26:57;2.60;;;2.40;;
8737;SDS011;4405;49.272;8.590;2022-09-21T07:29:24;2.77;;;2.37;;
8737;SDS011;4405;49.272;8.590;2022-09-21T07:31:50;2.23;;;2.03;;
8737;SDS011;4405;49.272;8.590;2022-09-21T07:34:16;4.87;;;2.47;;
8737;SDS011;4405;49.272;8.590;2022-09-21T07:36:43;5.00;;;2.10;;
8737;SDS011;4405;49.272;8.590;2022-09-21T07:39:09;2.83;;;2.50;;
8737;SDS011;4405;49.272;8.590;2022-09-21T07:41:36;3.00;;;2.03;;
8737;SDS011;4405;49.272;8.590;2022-09-21T07:44:04;4.67;;;2.30;;
8737;SDS011;4405;49.272;8.590;2022-09-21T07:46:30;2.77;;;2.13;;
8737;SDS011;4405;49.272;8.590;2022-09-21T07:48:57;4.50;;;2.43;;
8737;SDS011;4405;49.272;8.590;2022-09-21T07:51:23;6.30;;;2.63;;
8737;SDS011;4405;49.272;8.590;2022-09-21T07:53:52;2.50;;;2.40;;
8737;SDS011;4405;49.272;8.590;2022-09-21T07:56:20;2.73;;;2.53;;
8737;SDS011;4405;49.272;8.590;2022-09-21T07:58:47;3.10;;;2.80;;
8737;SDS011;4405;49.272;8.590;2022-09-21T08:01:32;3.00;;;2.60;;
8737;SDS011;4405;49.272;8.590;2022-09-21T08:03:59;4.30;;;2.30;;
8737;SDS011;4405;49.272;8.590;2022-09-21T08:06:26;2.20;;;2.00;;
8737;SDS011;4405;49.272;8.590;2022-09-21T08:08:53;3.77;;;2.47;;
8737;SDS011;4405;49.272;8.590;2022-09-21T08:11:20;2.67;;;2.47;;
8737;SDS011;4405;49.272;8.590;2022-09-21T08:13:47;2.53;;;2.20;;
8737;SDS011;4405;49.272;8.590;2022-09-21T08:16:14;3.33;;;2.23;;
8737;SDS011;4405;49.272;8.590;2022-09-21T08:18:42;1.70;;;1.70;;
8737;SDS011;4405;49.272;8.590;2022-09-21T08:21:09;2.77;;;1.93;;
8737;SDS011;4405;49.272;8.590;2022-09-21T08:23:35;3.57;;;1.57;;
8737;SDS011;4405;49.272;8.590;2022-09-21T08:26:05;2.23;;;2.03;;
8737;SDS011;4405;49.272;8.590;2022-09-21T08:28:32;1.63;;;1.53;;
8737;SDS011;4405;49.272;8.590;2022-09-21T08:30:59;2.30;;;1.60;;
8737;SDS011;4405;49.272;8.590;2022-09-21T08:33:26;1.70;;;1.60;;
8737;SDS011;4405;49.272;8.590;2022-09-21T08:35:55;1.60;;;1.50;;
8737;SDS011;4405;49.272;8.590;2022-09-21T08:38:21;1.80;;;1.80;;
8737;SDS011;4405;49.272;8.590;2022-09-21T08:40:48;1.73;;;1.50;;
8737;SDS011;4405;49.272;8.590;2022-09-21T08:43:15;3.07;;;1.43;;
8737;SDS011;4405;49.272;8.590;2022-09-21T08:45:43;2.03;;;1.60;;
8737;SDS011;4405;49.272;8.590;2022-09-21T08:48:12;1.60;;;1.50;;
8737;SDS011;4405;49.272;8.590;2022-09-21T08:50:44;1.93;;;1.33;;
8737;SDS011;4405;49.272;8.590;2022-09-21T08:53:13;1.43;;;1.33;;
8737;SDS011;4405;49.272;8.590;2022-09-21T08:55:40;1.70;;;1.50;;
8737;SDS011;4405;49.272;8.590;2022-09-21T08:58:10;5.53;;;1.87;;
8737;SDS011;4405;49.272;8.590;2022-09-21T09:00:41;2.30;;;1.70;;
8737;SDS011;4405;49.272;8.590;2022-09-21T09:05:51;1.70;;;1.60;;
8737;SDS011;4405;49.272;8.590;2022-09-21T09:11:04;2.83;;;1.60;;
8737;SDS011;4405;49.272;8.590;2022-09-21T09:13:39;2.10;;;1.67;;
8737;SDS011;4405;49.272;8.590;2022-09-21T09:16:13;1.90;;;1.67;;
8737;SDS011;4405;49.272;8.590;2022-09-21T09:18:42;2.83;;;1.60;;
8737;SDS011;4405;49.272;8.590;2022-09-21T09:21:10;3.13;;;1.60;;
8737;SDS011;4405;49.272;8.590;2022-09-21T09:23:38;1.60;;;1.50;;
8737;SDS011;4405;49.272;8.590;2022-09-21T09:26:09;2.30;;;1.50;;
8737;SDS011;4405;49.272;8.590;2022-09-21T09:28:39;2.07;;;1.67;;
8737;SDS011;4405;49.272;8.590;2022-09-21T09:31:10;2.17;;;1.33;;
8737;SDS011;4405;49.272;8.590;2022-09-21T09:33:42;5.47;;;1.77;;
8737;SDS011;4405;49.272;8.590;2022-09-21T09:36:10;1.60;;;1.50;;
8737;SDS011;4405;49.272;8.590;2022-09-21T09:38:37;1.83;;;1.40;;
8737;SDS011;4405;49.272;8.590;2022-09-21T09:41:13;1.97;;;1.87;;
8737;SDS011;4405;49.272;8.590;2022-09-21T09:43:45;1.50;;;1.40;;
8737;SDS011;4405;49.272;8.590;2022-09-21T09:46:16;1.93;;;1.50;;
8737;SDS011;4405;49.272;8.590;2022-09-21T09:48:55;2.30;;;1.50;;
8737;SDS011;4405;49.272;8.590;2022-09-21T09:51:28;2.57;;;1.43;;
8737;SDS011;4405;49.272;8.590;2022-09-21T09:53:55;1.57;;;1.47;;
8737;SDS011;4405;49.272;8.590;2022-09-21T09:56:25;2.67;;;1.60;;
8737;SDS011;4405;49.272;8.590;2022-09-21T09:58:52;1.47;;;1.37;;
8737;SDS011;4405;49.272;8.590;2022-09-21T10:01:35;2.63;;;1.50;;
8737;SDS011;4405;49.272;8.590;2022-09-21T10:04:03;1.50;;;1.40;;
8737;SDS011;4405;49.272;8.590;2022-09-21T10:06:30;2.40;;;1.70;;
8737;SDS011;4405;49.272;8.590;2022-09-21T10:08:57;1.40;;;1.30;;
8737;SDS011;4405;49.272;8.590;2022-09-21T10:11:32;1.27;;;1.20;;
8737;SDS011;4405;49.272;8.590;2022-09-21T10:14:05;1.50;;;1.37;;
8737;SDS011;4405;49.272;8.590;2022-09-21T10:16:32;1.20;;;1.20;;
8737;SDS011;4405;49.272;8.590;2022-09-21T10:19:05;1.60;;;1.50;;
8737;SDS011;4405;49.272;8.590;2022-09-21T10:21:32;1.47;;;1.37;;
8737;SDS011;4405;49.272;8.590;2022-09-21T10:23:59;1.87;;;1.50;;
8737;SDS011;4405;49.272;8.590;2022-09-21T10:26:30;1.63;;;1.30;;
8737;SDS011;4405;49.272;8.590;2022-09-21T10:28:58;1.60;;;1.33;;
8737;SDS011;4405;49.272;8.590;2022-09-21T10:31:25;1.83;;;1.40;;
8737;SDS011;4405;49.272;8.590;2022-09-21T10:33:53;1.40;;;1.30;;
8737;SDS011;4405;49.272;8.590;2022-09-21T10:36:25;1.10;;;1.10;;
8737;SDS011;4405;49.272;8.590;2022-09-21T10:38:51;1.33;;;1.17;;
8737;SDS011;4405;49.272;8.590;2022-09-21T10:41:18;1.70;;;0.97;;
8737;SDS011;4405;49.272;8.590;2022-09-21T10:43:45;1.60;;;1.10;;
8737;SDS011;4405;49.272;8.590;2022-09-21T10:46:14;1.23;;;1.13;;
8737;SDS011;4405;49.272;8.590;2022-09-21T10:48:43;1.00;;;1.00;;
8737;SDS011;4405;49.272;8.590;2022-09-21T10:51:17;1.37;;;0.90;;
8737;SDS011;4405;49.272;8.590;2022-09-21T10:53:46;1.00;;;1.00;;
8737;SDS011;4405;49.272;8.590;2022-09-21T10:56:14;0.90;;;0.90;;
8737;SDS011;4405;49.272;8.590;2022-09-21T11:01:30;0.90;;;0.90;;
8737;SDS011;4405;49.272;8.590;2022-09-21T11:03:57;1.80;;;1.00;;
8737;SDS011;4405;49.272;8.590;2022-09-21T11:06:27;2.13;;;1.00;;
8737;SDS011;4405;49.272;8.590;2022-09-21T11:08:55;1.03;;;0.87;;
8737;SDS011;4405;49.272;8.590;2022-09-21T11:11:30;0.90;;;0.90;;
8737;SDS011;4405;49.272;8.590;2022-09-21T11:13:57;1.07;;;1.00;;
8737;SDS011;4405;49.272;8.590;2022-09-21T11:16:30;2.13;;;0.83;;
8737;SDS011;4405;49.272;8.590;2022-09-21T11:19:00;2.57;;;1.00;;
8737;SDS011;4405;49.272;8.590;2022-09-21T11:21:29;1.17;;;0.90;;
8737;SDS011;4405;49.272;8.590;2022-09-21T11:24:00;0.80;;;0.80;;
8737;SDS011;4405;49.272;8.590;2022-09-21T11:26:28;1.90;;;0.90;;
8737;SDS011;4405;49.272;8.590;2022-09-21T11:28:57;1.50;;;1.10;;
8737;SDS011;4405;49.272;8.590;2022-09-21T11:31:31;1.50;;;1.00;;
8737;SDS011;4405;49.272;8.590;2022-09-21T11:36:51;1.43;;;0.90;;
8737;SDS011;4405;49.272;8.590;2022-09-21T11:39:23;0.90;;;0.90;;
8737;SDS011;4405;49.272;8.590;2022-09-21T11:41:56;2.10;;;1.20;;
8737;SDS011;4405;49.272;8.590;2022-09-21T11:44:28;0.80;;;0.80;;
8737;SDS011;4405;49.272;8.590;2022-09-21T11:47:03;1.23;;;1.00;;
8737;SDS011;4405;49.272;8.590;2022-09-21T11:49:38;0.83;;;0.83;;
8737;SDS011;4405;49.272;8.590;2022-09-21T11:52:13;1.63;;;0.90;;
8737;SDS011;4405;49.272;8.590;2022-09-21T11:54:54;0.90;;;0.90;;
8737;SDS011;4405;49.272;8.590;2022-09-21T11:57:25;1.30;;;0.80;;
8737;SDS011;4405;49.272;8.590;2022-09-21T12:00:04;1.47;;;0.70;;
8737;SDS011;4405;49.272;8.590;2022-09-21T12:02:46;1.03;;;0.83;;
8737;SDS011;4405;49.272;8.590;2022-09-21T12:05:18;0.87;;;0.67;;
8737;SDS011;4405;49.272;8.590;2022-09-21T12:07:51;0.90;;;0.90;;
8737;SDS011;4405;49.272;8.590;2022-09-21T12:10:34;1.30;;;1.20;;
8737;SDS011;4405;49.272;8.590;2022-09-21T12:13:03;1.00;;;1.00;;
8737;SDS011;4405;49.272;8.590;2022-09-21T12:15:32;1.00;;;1.00;;
8737;SDS011;4405;49.272;8.590;2022-09-21T12:18:05;0.87;;;0.87;;
8737;SDS011;4405;49.272;8.590;2022-09-21T12:20:34;0.80;;;0.80;;
8737;SDS011;4405;49.272;8.590;2022-09-21T12:23:03;0.80;;;0.80;;
8737;SDS011;4405;49.272;8.590;2022-09-21T12:25:31;1.57;;;1.10;;
8737;SDS011;4405;49.272;8.590;2022-09-21T12:28:01;0.80;;;0.80;;
8737;SDS011;4405;49.272;8.590;2022-09-21T12:30:28;0.70;;;0.70;;
8737;SDS011;4405;49.272;8.590;2022-09-21T12:32:56;0.70;;;0.70;;
8737;SDS011;4405;49.272;8.590;2022-09-21T12:35:28;1.23;;;1.00;;
8737;SDS011;4405;49.272;8.590;2022-09-21T12:37:59;1.10;;;1.10;;
8737;SDS011;4405;49.272;8.590;2022-09-21T12:40:30;1.40;;;0.90;;
8737;SDS011;4405;49.272;8.590;2022-09-21T12:42:57;0.90;;;0.90;;
8737;SDS011;4405;49.272;8.590;2022-09-21T12:45:26;0.90;;;0.90;;
8737;SDS011;4405;49.272;8.590;2022-09-21T12:47:54;0.97;;;0.90;;
8737;SDS011;4405;49.272;8.590;2022-09-21T12:50:24;0.90;;;0.90;;
8737;SDS011;4405;49.272;8.590;2022-09-21T12:52:53;0.80;;;0.80;;
8737;SDS011;4405;49.272;8.590;2022-09-21T12:55:22;1.23;;;0.90;;
8737;SDS011;4405;49.272;8.590;2022-09-21T12:57:54;0.87;;;0.87;;
8737;SDS011;4405;49.272;8.590;2022-09-21T13:00:22;0.73;;;0.70;;
8737;SDS011;4405;49.272;8.590;2022-09-21T13:02:50;1.13;;;0.57;;
8737;SDS011;4405;49.272;8.590;2022-09-21T13:05:20;1.37;;;0.70;;
8737;SDS011;4405;49.272;8.590;2022-09-21T13:08:03;0.70;;;0.63;;
8737;SDS011;4405;49.272;8.590;2022-09-21T13:10:35;2.07;;;0.90;;
8737;SDS011;4405;49.272;8.590;2022-09-21T13:13:04;0.80;;;0.80;;
8737;SDS011;4405;49.272;8.590;2022-09-21T13:15:39;2.47;;;0.80;;
8737;SDS011;4405;49.272;8.590;2022-09-21T13:18:14;0.60;;;0.60;;
8737;SDS011;4405;49.272;8.590;2022-09-21T13:20:42;0.63;;;0.63;;
8737;SDS011;4405;49.272;8.590;2022-09-21T13:23:13;0.70;;;0.70;;
8737;SDS011;4405;49.272;8.590;2022-09-21T13:25:40;0.80;;;0.80;;
8737;SDS011;4405;49.272;8.590;2022-09-21T13:28:17;0.90;;;0.90;;
8737;SDS011;4405;49.272;8.590;2022-09-21T13:30:44;0.80;;;0.80;;
8737;SDS011;4405;49.272;8.590;2022-09-21T13:33:27;3.27;;;1.10;;
8737;SDS011;4405;49.272;8.590;2022-09-21T13:36:09;0.87;;;0.87;;
8737;SDS011;4405;49.272;8.590;2022-09-21T13:41:25;1.37;;;0.80;;
8737;SDS011;4405;49.272;8.590;2022-09-21T13:43:59;0.77;;;0.77;;
8737;SDS011;4405;49.272;8.590;2022-09-21T13:46:45;0.80;;;0.80;;
8737;SDS011;4405;49.272;8.590;2022-09-21T13:49:14;0.73;;;0.73;;
8737;SDS011;4405;49.272;8.590;2022-09-21T13:51:48;1.02;;;0.88;;
8737;SDS011;4405;49.272;8.590;2022-09-21T13:54:16;0.83;;;0.83;;
8737;SDS011;4405;49.272;8.590;2022-09-21T13:56:44;1.70;;;0.80;;
8737;SDS011;4405;49.272;8.590;2022-09-21T13:59:15;1.30;;;1.10;;
8737;SDS011;4405;49.272;8.590;2022-09-21T14:01:45;1.23;;;1.20;;
8737;SDS011;4405;49.272;8.590;2022-09-21T14:04:16;0.73;;;0.73;;
8737;SDS011;4405;49.272;8.590;2022-09-21T14:06:43;1.67;;;1.43;;
8737;SDS011;4405;49.272;8.590;2022-09-21T14:09:17;1.58;;;1.50;;
8737;SDS011;4405;49.272;8.590;2022-09-21T14:11:46;1.08;;;1.08;;
8737;SDS011;4405;49.272;8.590;2022-09-21T14:14:22;1.80;;;0.90;;
8737;SDS011;4405;49.272;8.590;2022-09-21T14:16:50;0.80;;;0.80;;
8737;SDS011;4405;49.272;8.590;2022-09-21T14:25:14;0.90;;;0.90;;
8737;SDS011;4405;49.272;8.590;2022-09-21T14:27:42;0.80;;;0.80;;
8737;SDS011;4405;49.272;8.590;2022-09-21T14:30:15;1.60;;;0.90;;
8737;SDS011;4405;49.272;8.590;2022-09-21T14:32:44;0.83;;;0.83;;
8737;SDS011;4405;49.272;8.590;2022-09-21T14:35:14;0.60;;;0.60;;
8737;SDS011;4405;49.272;8.590;2022-09-21T14:37:44;0.70;;;0.70;;
8737;SDS011;4405;49.272;8.590;2022-09-21T14:40:15;0.70;;;0.70;;
8737;SDS011;4405;49.272;8.590;2022-09-21T14:42:44;1.93;;;1.83;;
8737;SDS011;4405;49.272;8.590;2022-09-21T14:45:13;1.00;;;1.00;;
8737;SDS011;4405;49.272;8.590;2022-09-21T14:47:48;1.07;;;0.80;;
8737;SDS011;4405;49.272;8.590;2022-09-21T14:53:04;0.73;;;0.73;;
8737;SDS011;4405;49.272;8.590;2022-09-21T14:55:38;1.00;;;1.00;;
8737;SDS011;4405;49.272;8.590;2022-09-21T14:58:18;1.10;;;1.10;;
8737;SDS011;4405;49.272;8.590;2022-09-21T15:00:47;1.33;;;0.80;;
8737;SDS011;4405;49.272;8.590;2022-09-21T15:05:55;0.80;;;0.80;;
8737;SDS011;4405;49.272;8.590;2022-09-21T15:08:28;0.97;;;0.87;;
8737;SDS011;4405;49.272;8.590;2022-09-21T15:11:19;0.83;;;0.83;;
8737;SDS011;4405;49.272;8.590;2022-09-21T15:13:50;0.90;;;0.90;;
8737;SDS011;4405;49.272;8.590;2022-09-21T15:16:24;0.80;;;0.80;;
8737;SDS011;4405;49.272;8.590;2022-09-21T15:18:58;1.83;;;0.90;;
8737;SDS011;4405;49.272;8.590;2022-09-21T15:21:29;0.90;;;0.90;;
8737;SDS011;4405;49.272;8.590;2022-09-21T15:23:57;0.77;;;0.73;;
8737;SDS011;4405;49.272;8.590;2022-09-21T15:26:25;0.93;;;0.93;;
8737;SDS011;4405;49.272;8.590;2022-09-21T15:28:55;0.73;;;0.73;;
8737;SDS011;4405;49.272;8.590;2022-09-21T15:31:22;1.33;;;0.87;;
8737;SDS011;4405;49.272;8.590;2022-09-21T15:33:48;1.00;;;0.90;;
8737;SDS011;4405;49.272;8.590;2022-09-21T15:36:20;0.90;;;0.90;;
8737;SDS011;4405;49.272;8.590;2022-09-21T15:38:47;0.80;;;0.80;;
8737;SDS011;4405;49.272;8.590;2022-09-21T15:41:17;1.10;;;1.10;;
8737;SDS011;4405;49.272;8.590;2022-09-21T15:44:10;0.90;;;0.90;;
8737;SDS011;4405;49.272;8.590;2022-09-21T15:46:37;1.47;;;0.87;;
8737;SDS011;4405;49.272;8.590;2022-09-21T15:49:08;1.40;;;0.90;;
8737;SDS011;4405;49.272;8.590;2022-09-21T15:51:37;0.80;;;0.80;;
8737;SDS011;4405;49.272;8.590;2022-09-21T15:54:04;0.90;;;0.90;;
8737;SDS011;4405;49.272;8.590;2022-09-21T15:56:32;1.00;;;1.00;;
8737;SDS011;4405;49.272;8.590;2022-09-21T15:59:05;1.43;;;0.90;;